OICK  Khoram Abad  Airport

Iran

Add Bookmark
Status IATA
Operational KHD
Latitude Longitude
33° 26' 7" N 48° 16' 58" E
33.435398 48.282902
Local (DST + 5) UTC (GMT + 4)
Mar 31, 2015 11:09 Mar 31, 2015 06:39
Sunrise-Sunset Local UTC
Begin Civil Twilight 06:39 02:09
Sunrise 07:04 02:34
Sunset 07:37 15:07
End Civil Twilight 08:02 15:32

Current Weather

METAR Observed VFR
OICK 310550Z 26008KT 9999 FEW040 14/04 Q1016 Tue, Mar 31, 2015 @ 05:50 UTC
(49 Minutes ago)
Visual Flight Rules
Wind Visibility Clouds Conditions
260° at 8 knots (15 kph) 10 km or more
  • Few at 4,000' AGL
  • No significant weather
Temperatures Readings Precipitation
Current Temp 14°C (57°F)
Dewpoint 4°C (39°F)
Humidity 51%
Altimeter 30"Hg
Sea Level Pressure 1016mb
Field Elevation 3789.37'
None Recorded

Additional weather within a 92.6km radius of OICK

Map ICAO Location
OICJ 67.2km N (040°)

24 Hour Weather History

Loading
-

24 Hour Weather Graphs

Loading
-

CheckWX.com is intended as a tool to help pilots better visualize weather data. It is not intended as a substitute for an official weather briefing obtained from a Flight Service Station. CheckWX.com does not meet the FAA requirements for an official pre-flight weather briefing. Therefore, it's important that pilots still call and obtain an official FSS pre-flight weather briefing.